عرعر, السعودية

06:07 PM AST on أمتèبر 23, 2014 (GMT +0300)
Arar | Change Station
CLOSE
Current Station
Airport
Location: Arar,
Elevation: 1821 ft
Nearby Weather Stations

Elev 1821 ft 30.91 °N, 41.14 °E | Updated 1 hour ago

Clear
صافية
86 °F
Feels Like 85 °F
N
13
ريح متغير ريح from جنوب شرقی

هذا اليوم
High -- | Low -- °F
--% Chance of Precip.
Yesterday
High -- | Low -- °F
Precip. -- في
6:23 AM 5:35 PM
الهلال الأخير, 0% visible
الضغط 29.98 في
وضوح الرؤية -9999.0 أميال
سحابات
مؤشر الحرارة 85 °F
نقطة الندى 57 °F
الرطوبة 37%
Rainfall 0.00 في
عمق الثلج Not available.
الأشعة فوق البنفسجية Not available.
Pollen Not available.
جودة الهواء Not available.
Flu Activity Not available.
METAR OERR 231400Z 13011KT CAVOK 30/14 Q1015 NOSIG

More Conditions Fewer Conditions

الضغط 29.98 في
وضوح الرؤية -9999.0 أميال
سحابات
مؤشر الحرارة 85 °F
نقطة الندى 57 °F
الرطوبة 37%
Rainfall 0.00 في
عمق الثلج Not available.
الأشعة فوق البنفسجية Not available.
Pollen Not available.
جودة الهواء Not available.
Flu Activity Not available.
METAR OERR 231400Z 13011KT CAVOK 30/14 Q1015 NOSIG

More Conditions Fewer Conditions

10-Day Weather Forecast

Almanac

علم الفلك

Oct. 23, 2014 Rise Set
Actual Time 6:23 AM AST 5:35 PM AST
Civil Twilight 5:58 AM AST 6:00 PM AST
Nautical Twilight 5:30 AM AST 6:28 PM AST
Astronomical Twilight 5:02 AM AST 6:56 PM AST
قمر 5:44 AM AST 5:23 PM AST
Length Of Visible Light 12h 01m
طول الیوم
11h 12m
Tomorrow will be 1m 44s shorter.
الهلال الأخير, 0% of the Moon is Illuminated
هذا اليوم
الهلال الأخير
Oct 23
New
Oct 30
الربع الاول
Nov 6
بدر
Nov 14
الربع الآخر

Today's Extremes

Country Highs Country Lows

Community

WunderPhotos

Upload Photos

1,764,277 photos uploaded!

Nearby

جودة الهواء

Not available.

عمق الثلج

Not available.

Earthquake Activity

City Distance Mag. Time & Date
No recent earthquake activity has been reported nearby.
Minimum magnitude displayed is 2.5.

Coastal Water Temperatures

مكان درجات الحرارة
No Stations Reporting

Nearby Weather Stations